Bryantsville, KY (40410)

6:44 PM EDT on March 26, 2015 (GMT -0400)
Powell | | Change Station
CLOSE
Current Station
Airport
Location: Danville,
Elevation: 1024 ft
Nearby Weather Stations

Elev 1024 ft 37.58 °N, 84.77 °W | Updated 9 minutes ago

Overcast
Overcast
43 °F
Feels Like 37 °F
N
12
Wind Variable Wind from North
Gusts 18 mph

Today
High -- | Low -- °F
--% Chance of Precip.
Yesterday
High -- | Low -- °F
Precip. -- in
7:33 AM 7:55 PM
Waxing Crescent, 46% visible
Pressure 29.92 in
Visibility 7.0 miles
Clouds Scattered Clouds 600 ft
Mostly Cloudy 1100 ft
Overcast 4600 ft
Windchill 37 °F
Dew Point 41 °F
Humidity 93%
Rainfall 0.00 in
Snow Depth Not available.
UV 0 out of 12
Pollen 3.80 out of 12
Air Quality Not available.
Flu Activity Not available.
METAR KDVK 262235Z AUTO 35010G16KT 7SM -DZ SCT006 BKN011 OVC046 06/05 A2992 RMK AO2

More Conditions Fewer Conditions

Pressure 29.92 in
Visibility 7.0 miles
Clouds Scattered Clouds 600 ft
Mostly Cloudy 1100 ft
Overcast 4600 ft
Windchill 37 °F
Dew Point 41 °F
Humidity 93%
Rainfall 0.00 in
Snow Depth Not available.
UV 0 out of 12
Pollen 3.80 out of 12
Air Quality Not available.
Flu Activity Not available.
METAR KDVK 262235Z AUTO 35010G16KT 7SM -DZ SCT006 BKN011 OVC046 06/05 A2992 RMK AO2

More Conditions Fewer Conditions

10-Day Weather Forecast

Almanac

Astronomy

Mar. 26, 2015 Rise Set
Actual Time
Civil Twilight
Nautical Twilight
Astronomical Twilight
Moon
Length of Visible Light
Length of Day
Tomorrow will be .
, % of the Moon is Illuminated

Today's Extremes

State Highs State Lows

Community

WunderPhotos

Upload Photos

1,808,629 photos uploaded!

WunderBlogs® & News

Nearby

Air Quality

  Air Quality AQ Index Pollutant
Not available.

Snow Depth

Station Depth Elevation

Earthquake Activity

City Distance Mag. Time & Date
Minimum magnitude displayed is 2.5.

Coastal Water Temperatures

Place Temperature

Stations

Nearby Weather Stations

Station Location Temp. Windchill Dew Point Humidity Wind Precip. Elev Updated Type